sensor_id;sensor_type;location;lat;lon;timestamp;P1;durP1;ratioP1;P2;durP2;ratioP2
8131;SDS011;4107;49.212;9.198;2022-08-21T00:01:34;3.53;;;2.23;;
8131;SDS011;4107;49.212;9.198;2022-08-21T00:04:04;2.60;;;2.27;;
8131;SDS011;4107;49.212;9.198;2022-08-21T00:06:31;4.87;;;2.50;;
8131;SDS011;4107;49.212;9.198;2022-08-21T00:08:58;3.00;;;2.37;;
8131;SDS011;4107;49.212;9.198;2022-08-21T00:11:24;4.10;;;2.30;;
8131;SDS011;4107;49.212;9.198;2022-08-21T00:13:52;5.37;;;2.43;;
8131;SDS011;4107;49.212;9.198;2022-08-21T00:16:18;4.20;;;2.77;;
8131;SDS011;4107;49.212;9.198;2022-08-21T00:18:44;3.10;;;2.43;;
8131;SDS011;4107;49.212;9.198;2022-08-21T00:21:11;3.17;;;2.33;;
8131;SDS011;4107;49.212;9.198;2022-08-21T00:23:37;3.53;;;2.73;;
8131;SDS011;4107;49.212;9.198;2022-08-21T00:26:03;3.90;;;2.70;;
8131;SDS011;4107;49.212;9.198;2022-08-21T00:28:29;4.93;;;2.30;;
8131;SDS011;4107;49.212;9.198;2022-08-21T00:30:56;3.43;;;2.30;;
8131;SDS011;4107;49.212;9.198;2022-08-21T00:33:22;3.63;;;2.27;;
8131;SDS011;4107;49.212;9.198;2022-08-21T00:35:48;3.07;;;2.40;;
8131;SDS011;4107;49.212;9.198;2022-08-21T00:38:14;2.57;;;2.37;;
8131;SDS011;4107;49.212;9.198;2022-08-21T00:40:42;3.37;;;2.60;;
8131;SDS011;4107;49.212;9.198;2022-08-21T00:43:11;2.57;;;2.37;;
8131;SDS011;4107;49.212;9.198;2022-08-21T00:45:38;3.20;;;2.43;;
8131;SDS011;4107;49.212;9.198;2022-08-21T00:48:04;3.00;;;2.40;;
8131;SDS011;4107;49.212;9.198;2022-08-21T00:50:31;4.27;;;2.70;;
8131;SDS011;4107;49.212;9.198;2022-08-21T00:52:59;3.77;;;2.60;;
8131;SDS011;4107;49.212;9.198;2022-08-21T00:55:29;4.30;;;2.70;;
8131;SDS011;4107;49.212;9.198;2022-08-21T00:57:57;2.93;;;2.70;;
8131;SDS011;4107;49.212;9.198;2022-08-21T01:00:28;3.83;;;2.60;;
8131;SDS011;4107;49.212;9.198;2022-08-21T01:02:58;3.33;;;3.00;;
8131;SDS011;4107;49.212;9.198;2022-08-21T01:05:25;3.53;;;3.00;;
8131;SDS011;4107;49.212;9.198;2022-08-21T01:07:52;6.33;;;3.00;;
8131;SDS011;4107;49.212;9.198;2022-08-21T01:10:19;4.03;;;2.57;;
8131;SDS011;4107;49.212;9.198;2022-08-21T01:12:45;4.43;;;2.90;;
8131;SDS011;4107;49.212;9.198;2022-08-21T01:15:11;2.73;;;2.50;;
8131;SDS011;4107;49.212;9.198;2022-08-21T01:17:40;3.00;;;2.70;;
8131;SDS011;4107;49.212;9.198;2022-08-21T01:20:07;3.40;;;2.70;;
8131;SDS011;4107;49.212;9.198;2022-08-21T01:22:34;2.73;;;2.30;;
8131;SDS011;4107;49.212;9.198;2022-08-21T01:25:01;2.77;;;2.57;;
8131;SDS011;4107;49.212;9.198;2022-08-21T01:27:29;3.37;;;3.07;;
8131;SDS011;4107;49.212;9.198;2022-08-21T01:29:56;5.03;;;3.13;;
8131;SDS011;4107;49.212;9.198;2022-08-21T01:32:26;3.23;;;2.93;;
8131;SDS011;4107;49.212;9.198;2022-08-21T01:34:52;2.80;;;2.60;;
8131;SDS011;4107;49.212;9.198;2022-08-21T01:37:19;3.70;;;3.20;;
8131;SDS011;4107;49.212;9.198;2022-08-21T01:39:46;3.67;;;2.67;;
8131;SDS011;4107;49.212;9.198;2022-08-21T01:42:12;4.13;;;2.83;;
8131;SDS011;4107;49.212;9.198;2022-08-21T01:44:39;3.70;;;3.10;;
8131;SDS011;4107;49.212;9.198;2022-08-21T01:47:06;5.53;;;3.00;;
8131;SDS011;4107;49.212;9.198;2022-08-21T01:49:35;3.47;;;2.80;;
8131;SDS011;4107;49.212;9.198;2022-08-21T01:52:02;3.23;;;2.80;;
8131;SDS011;4107;49.212;9.198;2022-08-21T01:54:28;3.10;;;2.80;;
8131;SDS011;4107;49.212;9.198;2022-08-21T01:56:55;4.33;;;2.97;;
8131;SDS011;4107;49.212;9.198;2022-08-21T01:59:22;4.93;;;2.97;;
8131;SDS011;4107;49.212;9.198;2022-08-21T02:01:48;5.00;;;2.83;;
8131;SDS011;4107;49.212;9.198;2022-08-21T02:04:14;3.70;;;2.77;;
8131;SDS011;4107;49.212;9.198;2022-08-21T02:06:40;3.43;;;2.90;;
8131;SDS011;4107;49.212;9.198;2022-08-21T02:09:07;3.00;;;2.70;;
8131;SDS011;4107;49.212;9.198;2022-08-21T02:11:35;5.40;;;2.90;;
8131;SDS011;4107;49.212;9.198;2022-08-21T02:14:01;3.57;;;3.00;;
8131;SDS011;4107;49.212;9.198;2022-08-21T02:16:27;3.40;;;3.10;;
8131;SDS011;4107;49.212;9.198;2022-08-21T02:18:53;3.00;;;2.80;;
8131;SDS011;4107;49.212;9.198;2022-08-21T02:21:19;3.80;;;3.40;;
8131;SDS011;4107;49.212;9.198;2022-08-21T02:23:44;4.13;;;3.20;;
8131;SDS011;4107;49.212;9.198;2022-08-21T02:26:10;3.03;;;2.70;;
8131;SDS011;4107;49.212;9.198;2022-08-21T02:28:38;7.53;;;3.40;;
8131;SDS011;4107;49.212;9.198;2022-08-21T02:31:05;3.33;;;2.87;;
8131;SDS011;4107;49.212;9.198;2022-08-21T02:33:30;3.53;;;3.20;;
8131;SDS011;4107;49.212;9.198;2022-08-21T02:35:57;4.43;;;3.07;;
8131;SDS011;4107;49.212;9.198;2022-08-21T02:38:24;5.10;;;3.13;;
8131;SDS011;4107;49.212;9.198;2022-08-21T02:40:52;3.53;;;3.13;;
8131;SDS011;4107;49.212;9.198;2022-08-21T02:43:20;5.63;;;3.40;;
8131;SDS011;4107;49.212;9.198;2022-08-21T02:45:47;6.40;;;3.30;;
8131;SDS011;4107;49.212;9.198;2022-08-21T02:48:17;3.57;;;3.10;;
8131;SDS011;4107;49.212;9.198;2022-08-21T02:50:47;5.33;;;3.53;;
8131;SDS011;4107;49.212;9.198;2022-08-21T02:53:18;4.37;;;3.30;;
8131;SDS011;4107;49.212;9.198;2022-08-21T02:55:44;3.47;;;3.13;;
8131;SDS011;4107;49.212;9.198;2022-08-21T02:58:12;3.40;;;3.10;;
8131;SDS011;4107;49.212;9.198;2022-08-21T03:00:40;4.40;;;3.30;;
8131;SDS011;4107;49.212;9.198;2022-08-21T03:03:06;3.67;;;3.30;;
8131;SDS011;4107;49.212;9.198;2022-08-21T03:05:32;4.80;;;3.33;;
8131;SDS011;4107;49.212;9.198;2022-08-21T03:08:00;3.73;;;3.30;;
8131;SDS011;4107;49.212;9.198;2022-08-21T03:10:27;3.60;;;3.30;;
8131;SDS011;4107;49.212;9.198;2022-08-21T03:12:55;4.63;;;3.10;;
8131;SDS011;4107;49.212;9.198;2022-08-21T03:15:22;4.27;;;3.23;;
8131;SDS011;4107;49.212;9.198;2022-08-21T03:17:49;3.43;;;3.13;;
8131;SDS011;4107;49.212;9.198;2022-08-21T03:20:16;4.37;;;3.30;;
8131;SDS011;4107;49.212;9.198;2022-08-21T03:22:43;4.03;;;3.27;;
8131;SDS011;4107;49.212;9.198;2022-08-21T03:25:09;3.77;;;3.13;;
8131;SDS011;4107;49.212;9.198;2022-08-21T03:27:35;5.60;;;3.73;;
8131;SDS011;4107;49.212;9.198;2022-08-21T03:30:02;3.80;;;3.33;;
8131;SDS011;4107;49.212;9.198;2022-08-21T03:32:29;3.73;;;3.43;;
8131;SDS011;4107;49.212;9.198;2022-08-21T03:34:56;4.70;;;3.57;;
8131;SDS011;4107;49.212;9.198;2022-08-21T03:37:22;4.90;;;4.13;;
8131;SDS011;4107;49.212;9.198;2022-08-21T03:39:49;6.67;;;4.20;;
8131;SDS011;4107;49.212;9.198;2022-08-21T03:42:15;4.20;;;3.80;;
8131;SDS011;4107;49.212;9.198;2022-08-21T03:44:41;4.43;;;4.03;;
8131;SDS011;4107;49.212;9.198;2022-08-21T03:47:07;5.07;;;4.23;;
8131;SDS011;4107;49.212;9.198;2022-08-21T03:49:34;4.17;;;3.77;;
8131;SDS011;4107;49.212;9.198;2022-08-21T03:52:00;4.20;;;3.77;;
8131;SDS011;4107;49.212;9.198;2022-08-21T03:54:26;4.37;;;3.80;;
8131;SDS011;4107;49.212;9.198;2022-08-21T03:56:52;4.30;;;3.70;;
8131;SDS011;4107;49.212;9.198;2022-08-21T03:59:18;4.03;;;3.73;;
8131;SDS011;4107;49.212;9.198;2022-08-21T04:01:57;3.90;;;3.60;;
8131;SDS011;4107;49.212;9.198;2022-08-21T04:04:25;4.13;;;3.53;;
8131;SDS011;4107;49.212;9.198;2022-08-21T04:06:52;4.43;;;3.57;;
8131;SDS011;4107;49.212;9.198;2022-08-21T04:09:18;4.70;;;3.87;;
8131;SDS011;4107;49.212;9.198;2022-08-21T04:11:44;4.17;;;3.77;;
8131;SDS011;4107;49.212;9.198;2022-08-21T04:14:11;5.10;;;4.30;;
8131;SDS011;4107;49.212;9.198;2022-08-21T04:16:37;4.23;;;3.83;;
8131;SDS011;4107;49.212;9.198;2022-08-21T04:19:03;3.90;;;3.50;;
8131;SDS011;4107;49.212;9.198;2022-08-21T04:21:29;3.90;;;3.43;;
8131;SDS011;4107;49.212;9.198;2022-08-21T04:23:55;4.47;;;3.60;;
8131;SDS011;4107;49.212;9.198;2022-08-21T04:26:21;3.93;;;3.30;;
8131;SDS011;4107;49.212;9.198;2022-08-21T04:28:46;4.43;;;3.53;;
8131;SDS011;4107;49.212;9.198;2022-08-21T04:31:12;4.30;;;3.90;;
8131;SDS011;4107;49.212;9.198;2022-08-21T04:33:38;5.00;;;4.30;;
8131;SDS011;4107;49.212;9.198;2022-08-21T04:36:03;6.40;;;4.50;;
8131;SDS011;4107;49.212;9.198;2022-08-21T04:38:30;4.23;;;3.77;;
8131;SDS011;4107;49.212;9.198;2022-08-21T04:40:58;4.53;;;3.67;;
8131;SDS011;4107;49.212;9.198;2022-08-21T04:43:25;4.17;;;3.77;;
8131;SDS011;4107;49.212;9.198;2022-08-21T04:45:53;4.50;;;4.10;;
8131;SDS011;4107;49.212;9.198;2022-08-21T04:48:21;5.93;;;4.20;;
8131;SDS011;4107;49.212;9.198;2022-08-21T04:50:56;4.33;;;3.73;;
8131;SDS011;4107;49.212;9.198;2022-08-21T04:53:30;5.23;;;4.23;;
8131;SDS011;4107;49.212;9.198;2022-08-21T04:56:00;7.10;;;4.10;;
8131;SDS011;4107;49.212;9.198;2022-08-21T04:58:28;4.27;;;3.80;;
8131;SDS011;4107;49.212;9.198;2022-08-21T05:00:57;4.70;;;4.20;;
8131;SDS011;4107;49.212;9.198;2022-08-21T05:03:24;4.70;;;3.87;;
8131;SDS011;4107;49.212;9.198;2022-08-21T05:05:51;4.97;;;4.47;;
8131;SDS011;4107;49.212;9.198;2022-08-21T05:08:19;5.37;;;4.37;;
8131;SDS011;4107;49.212;9.198;2022-08-21T05:10:48;5.60;;;3.90;;
8131;SDS011;4107;49.212;9.198;2022-08-21T05:13:14;4.53;;;3.77;;
8131;SDS011;4107;49.212;9.198;2022-08-21T05:15:41;4.93;;;4.43;;
8131;SDS011;4107;49.212;9.198;2022-08-21T05:18:07;4.50;;;4.10;;
8131;SDS011;4107;49.212;9.198;2022-08-21T05:20:34;4.37;;;3.90;;
8131;SDS011;4107;49.212;9.198;2022-08-21T05:23:01;4.73;;;4.30;;
8131;SDS011;4107;49.212;9.198;2022-08-21T05:25:27;4.47;;;4.07;;
8131;SDS011;4107;49.212;9.198;2022-08-21T05:27:54;4.77;;;4.37;;
8131;SDS011;4107;49.212;9.198;2022-08-21T05:30:21;4.80;;;4.07;;
8131;SDS011;4107;49.212;9.198;2022-08-21T05:32:48;4.73;;;4.27;;
8131;SDS011;4107;49.212;9.198;2022-08-21T05:35:15;5.17;;;4.50;;
8131;SDS011;4107;49.212;9.198;2022-08-21T05:37:41;6.27;;;4.17;;
8131;SDS011;4107;49.212;9.198;2022-08-21T05:40:08;4.43;;;4.03;;
8131;SDS011;4107;49.212;9.198;2022-08-21T05:42:35;5.03;;;4.10;;
8131;SDS011;4107;49.212;9.198;2022-08-21T05:45:02;6.77;;;4.20;;
8131;SDS011;4107;49.212;9.198;2022-08-21T05:47:29;5.10;;;4.27;;
8131;SDS011;4107;49.212;9.198;2022-08-21T05:49:56;5.57;;;4.10;;
8131;SDS011;4107;49.212;9.198;2022-08-21T05:52:23;6.30;;;4.60;;
8131;SDS011;4107;49.212;9.198;2022-08-21T05:54:52;4.20;;;3.80;;
8131;SDS011;4107;49.212;9.198;2022-08-21T05:57:20;4.50;;;4.10;;
8131;SDS011;4107;49.212;9.198;2022-08-21T05:59:47;4.47;;;4.13;;
8131;SDS011;4107;49.212;9.198;2022-08-21T06:02:13;4.67;;;4.17;;
8131;SDS011;4107;49.212;9.198;2022-08-21T06:04:39;6.23;;;4.03;;
8131;SDS011;4107;49.212;9.198;2022-08-21T06:07:06;5.93;;;4.27;;
8131;SDS011;4107;49.212;9.198;2022-08-21T06:09:33;4.67;;;4.17;;
8131;SDS011;4107;49.212;9.198;2022-08-21T06:12:02;5.97;;;4.03;;
8131;SDS011;4107;49.212;9.198;2022-08-21T06:14:28;5.60;;;3.90;;
8131;SDS011;4107;49.212;9.198;2022-08-21T06:16:54;4.80;;;4.30;;
8131;SDS011;4107;49.212;9.198;2022-08-21T06:19:26;5.70;;;4.00;;
8131;SDS011;4107;49.212;9.198;2022-08-21T06:21:52;4.00;;;3.60;;
8131;SDS011;4107;49.212;9.198;2022-08-21T06:24:18;7.20;;;3.80;;
8131;SDS011;4107;49.212;9.198;2022-08-21T06:26:43;4.47;;;3.87;;
8131;SDS011;4107;49.212;9.198;2022-08-21T06:29:09;4.07;;;3.50;;
8131;SDS011;4107;49.212;9.198;2022-08-21T06:31:38;3.87;;;3.47;;
8131;SDS011;4107;49.212;9.198;2022-08-21T06:34:06;5.07;;;3.80;;
8131;SDS011;4107;49.212;9.198;2022-08-21T06:36:32;3.87;;;3.33;;
8131;SDS011;4107;49.212;9.198;2022-08-21T06:38:58;4.90;;;4.03;;
8131;SDS011;4107;49.212;9.198;2022-08-21T06:41:25;4.87;;;3.70;;
8131;SDS011;4107;49.212;9.198;2022-08-21T06:43:50;5.40;;;3.83;;
8131;SDS011;4107;49.212;9.198;2022-08-21T06:46:16;4.00;;;3.60;;
8131;SDS011;4107;49.212;9.198;2022-08-21T06:48:42;3.87;;;3.47;;
8131;SDS011;4107;49.212;9.198;2022-08-21T06:51:07;6.30;;;3.30;;
8131;SDS011;4107;49.212;9.198;2022-08-21T06:53:33;7.50;;;3.40;;
8131;SDS011;4107;49.212;9.198;2022-08-21T06:55:59;6.20;;;3.40;;
8131;SDS011;4107;49.212;9.198;2022-08-21T06:58:24;5.03;;;3.57;;
8131;SDS011;4107;49.212;9.198;2022-08-21T07:00:50;3.50;;;3.03;;
8131;SDS011;4107;49.212;9.198;2022-08-21T07:03:20;5.80;;;3.30;;
8131;SDS011;4107;49.212;9.198;2022-08-21T07:05:52;5.57;;;3.40;;
8131;SDS011;4107;49.212;9.198;2022-08-21T07:08:18;4.93;;;3.23;;
8131;SDS011;4107;49.212;9.198;2022-08-21T07:10:44;4.30;;;3.00;;
8131;SDS011;4107;49.212;9.198;2022-08-21T07:13:11;4.37;;;3.10;;
8131;SDS011;4107;49.212;9.198;2022-08-21T07:15:40;3.50;;;2.92;;
8131;SDS011;4107;49.212;9.198;2022-08-21T07:18:06;5.55;;;3.08;;
8131;SDS011;4107;49.212;9.198;2022-08-21T07:20:32;5.07;;;3.00;;
8131;SDS011;4107;49.212;9.198;2022-08-21T07:22:59;5.00;;;3.50;;
8131;SDS011;4107;49.212;9.198;2022-08-21T07:25:26;4.90;;;3.40;;
8131;SDS011;4107;49.212;9.198;2022-08-21T07:27:52;3.53;;;2.80;;
8131;SDS011;4107;49.212;9.198;2022-08-21T07:30:20;6.75;;;3.13;;
8131;SDS011;4107;49.212;9.198;2022-08-21T07:32:46;7.07;;;3.40;;
8131;SDS011;4107;49.212;9.198;2022-08-21T07:35:14;5.40;;;3.30;;
8131;SDS011;4107;49.212;9.198;2022-08-21T07:37:40;6.20;;;2.97;;
8131;SDS011;4107;49.212;9.198;2022-08-21T07:40:06;6.97;;;3.50;;
8131;SDS011;4107;49.212;9.198;2022-08-21T07:42:32;6.88;;;3.13;;
8131;SDS011;4107;49.212;9.198;2022-08-21T07:44:58;5.85;;;3.58;;
8131;SDS011;4107;49.212;9.198;2022-08-21T07:47:23;7.13;;;3.17;;
8131;SDS011;4107;49.212;9.198;2022-08-21T07:49:49;4.75;;;3.00;;
8131;SDS011;4107;49.212;9.198;2022-08-21T07:52:14;5.38;;;3.22;;
8131;SDS011;4107;49.212;9.198;2022-08-21T07:54:40;5.50;;;3.15;;
8131;SDS011;4107;49.212;9.198;2022-08-21T07:57:06;5.18;;;2.90;;
8131;SDS011;4107;49.212;9.198;2022-08-21T07:59:31;5.97;;;3.00;;
8131;SDS011;4107;49.212;9.198;2022-08-21T08:01:57;3.97;;;2.70;;
8131;SDS011;4107;49.212;9.198;2022-08-21T08:04:23;4.70;;;3.00;;
8131;SDS011;4107;49.212;9.198;2022-08-21T08:06:49;6.72;;;3.05;;
8131;SDS011;4107;49.212;9.198;2022-08-21T08:09:15;6.32;;;2.95;;
8131;SDS011;4107;49.212;9.198;2022-08-21T08:11:42;3.95;;;2.80;;
8131;SDS011;4107;49.212;9.198;2022-08-21T08:14:08;5.30;;;3.50;;
8131;SDS011;4107;49.212;9.198;2022-08-21T08:16:34;6.03;;;3.00;;
8131;SDS011;4107;49.212;9.198;2022-08-21T08:19:00;5.70;;;3.20;;
8131;SDS011;4107;49.212;9.198;2022-08-21T08:21:25;4.45;;;3.10;;
8131;SDS011;4107;49.212;9.198;2022-08-21T08:23:52;5.43;;;3.30;;
8131;SDS011;4107;49.212;9.198;2022-08-21T08:26:18;5.68;;;3.40;;
8131;SDS011;4107;49.212;9.198;2022-08-21T08:28:44;5.93;;;3.65;;
8131;SDS011;4107;49.212;9.198;2022-08-21T08:31:11;4.80;;;3.50;;
8131;SDS011;4107;49.212;9.198;2022-08-21T08:33:37;4.47;;;3.20;;
8131;SDS011;4107;49.212;9.198;2022-08-21T08:36:03;5.90;;;4.07;;
8131;SDS011;4107;49.212;9.198;2022-08-21T08:38:29;4.13;;;3.30;;
8131;SDS011;4107;49.212;9.198;2022-08-21T08:41:07;8.05;;;4.00;;
8131;SDS011;4107;49.212;9.198;2022-08-21T08:43:40;4.95;;;3.33;;
8131;SDS011;4107;49.212;9.198;2022-08-21T08:46:15;5.00;;;3.72;;
8131;SDS011;4107;49.212;9.198;2022-08-21T08:48:51;4.93;;;3.60;;
8131;SDS011;4107;49.212;9.198;2022-08-21T08:51:25;4.95;;;3.47;;
8131;SDS011;4107;49.212;9.198;2022-08-21T08:54:00;5.78;;;3.42;;
8131;SDS011;4107;49.212;9.198;2022-08-21T08:56:32;6.15;;;3.60;;
8131;SDS011;4107;49.212;9.198;2022-08-21T08:59:42;3.95;;;3.50;;
8131;SDS011;4107;49.212;9.198;2022-08-21T09:01:58;6.80;;;3.80;;
8131;SDS011;4107;49.212;9.198;2022-08-21T09:04:24;5.97;;;3.20;;
8131;SDS011;4107;49.212;9.198;2022-08-21T09:06:56;4.78;;;3.60;;
8131;SDS011;4107;49.212;9.198;2022-08-21T09:12:15;4.43;;;3.88;;
8131;SDS011;4107;49.212;9.198;2022-08-21T09:15:09;5.05;;;3.35;;
8131;SDS011;4107;49.212;9.198;2022-08-21T09:23:00;4.40;;;3.38;;
8131;SDS011;4107;49.212;9.198;2022-08-21T09:26:02;4.60;;;3.85;;
8131;SDS011;4107;49.212;9.198;2022-08-21T09:28:26;4.30;;;3.30;;
8131;SDS011;4107;49.212;9.198;2022-08-21T09:30:54;4.70;;;3.70;;
8131;SDS011;4107;49.212;9.198;2022-08-21T09:33:20;4.60;;;3.67;;
8131;SDS011;4107;49.212;9.198;2022-08-21T09:35:55;5.13;;;3.20;;
8131;SDS011;4107;49.212;9.198;2022-08-21T09:38:29;3.88;;;3.03;;
8131;SDS011;4107;49.212;9.198;2022-08-21T09:41:01;4.68;;;3.67;;
8131;SDS011;4107;49.212;9.198;2022-08-21T09:43:33;4.85;;;3.60;;
8131;SDS011;4107;49.212;9.198;2022-08-21T09:46:19;6.25;;;3.63;;
8131;SDS011;4107;49.212;9.198;2022-08-21T09:48:47;5.07;;;2.92;;
8131;SDS011;4107;49.212;9.198;2022-08-21T09:51:16;6.75;;;3.53;;
8131;SDS011;4107;49.212;9.198;2022-08-21T09:54:33;4.85;;;3.20;;
8131;SDS011;4107;49.212;9.198;2022-08-21T09:57:16;4.13;;;3.10;;
8131;SDS011;4107;49.212;9.198;2022-08-21T10:00:07;4.88;;;3.50;;
8131;SDS011;4107;49.212;9.198;2022-08-21T10:02:43;4.93;;;3.28;;
8131;SDS011;4107;49.212;9.198;2022-08-21T10:05:16;4.70;;;3.33;;
8131;SDS011;4107;49.212;9.198;2022-08-21T10:07:42;3.35;;;2.78;;
8131;SDS011;4107;49.212;9.198;2022-08-21T10:10:13;4.57;;;3.10;;
8131;SDS011;4107;49.212;9.198;2022-08-21T10:18:28;5.65;;;3.10;;
8131;SDS011;4107;49.212;9.198;2022-08-21T10:29:06;7.75;;;3.42;;
8131;SDS011;4107;49.212;9.198;2022-08-21T10:31:52;6.25;;;3.42;;
8131;SDS011;4107;49.212;9.198;2022-08-21T10:45:36;5.97;;;3.25;;
8131;SDS011;4107;49.212;9.198;2022-08-21T10:48:07;4.43;;;2.80;;
8131;SDS011;4107;49.212;9.198;2022-08-21T10:53:28;5.47;;;2.97;;
8131;SDS011;4107;49.212;9.198;2022-08-21T10:59:07;5.03;;;2.90;;
8131;SDS011;4107;49.212;9.198;2022-08-21T11:01:46;5.20;;;3.05;;
8131;SDS011;4107;49.212;9.198;2022-08-21T11:04:34;6.03;;;3.33;;
8131;SDS011;4107;49.212;9.198;2022-08-21T11:07:07;6.80;;;3.67;;
8131;SDS011;4107;49.212;9.198;2022-08-21T11:09:42;5.53;;;3.30;;
8131;SDS011;4107;49.212;9.198;2022-08-21T11:12:28;4.15;;;3.40;;
8131;SDS011;4107;49.212;9.198;2022-08-21T11:23:59;4.47;;;3.38;;
8131;SDS011;4107;49.212;9.198;2022-08-21T11:26:57;3.72;;;3.05;;
8131;SDS011;4107;49.212;9.198;2022-08-21T11:29:56;4.40;;;3.10;;
8131;SDS011;4107;49.212;9.198;2022-08-21T11:41:02;3.90;;;2.78;;
8131;SDS011;4107;49.212;9.198;2022-08-21T11:51:16;5.25;;;3.13;;
8131;SDS011;4107;49.212;9.198;2022-08-21T11:54:08;5.25;;;3.17;;
8131;SDS011;4107;49.212;9.198;2022-08-21T11:56:47;4.82;;;3.47;;
8131;SDS011;4107;49.212;9.198;2022-08-21T11:59:49;3.90;;;3.17;;
8131;SDS011;4107;49.212;9.198;2022-08-21T12:02:24;4.50;;;2.90;;
8131;SDS011;4107;49.212;9.198;2022-08-21T12:05:07;4.47;;;3.03;;
8131;SDS011;4107;49.212;9.198;2022-08-21T12:07:35;6.68;;;3.03;;
8131;SDS011;4107;49.212;9.198;2022-08-21T12:10:06;3.28;;;2.80;;
8131;SDS011;4107;49.212;9.198;2022-08-21T12:12:35;5.20;;;3.00;;
8131;SDS011;4107;49.212;9.198;2022-08-21T12:15:13;5.07;;;3.10;;
8131;SDS011;4107;49.212;9.198;2022-08-21T12:17:41;4.75;;;3.20;;
8131;SDS011;4107;49.212;9.198;2022-08-21T12:20:22;5.93;;;2.80;;
8131;SDS011;4107;49.212;9.198;2022-08-21T12:25:44;5.55;;;3.03;;
8131;SDS011;4107;49.212;9.198;2022-08-21T12:28:14;5.22;;;3.10;;
8131;SDS011;4107;49.212;9.198;2022-08-21T12:30:46;4.25;;;3.03;;
8131;SDS011;4107;49.212;9.198;2022-08-21T12:33:27;3.90;;;2.92;;
8131;SDS011;4107;49.212;9.198;2022-08-21T12:36:06;4.70;;;2.80;;
8131;SDS011;4107;49.212;9.198;2022-08-21T12:38:44;5.82;;;3.10;;
8131;SDS011;4107;49.212;9.198;2022-08-21T12:41:39;6.20;;;3.42;;
8131;SDS011;4107;49.212;9.198;2022-08-21T12:44:16;5.05;;;2.70;;
8131;SDS011;4107;49.212;9.198;2022-08-21T12:50:03;4.82;;;3.00;;
8131;SDS011;4107;49.212;9.198;2022-08-21T12:52:41;3.40;;;3.00;;
8131;SDS011;4107;49.212;9.198;2022-08-21T12:55:15;5.10;;;3.15;;
8131;SDS011;4107;49.212;9.198;2022-08-21T12:57:50;3.30;;;2.60;;
8131;SDS011;4107;49.212;9.198;2022-08-21T13:00:19;3.67;;;2.80;;
8131;SDS011;4107;49.212;9.198;2022-08-21T13:02:48;5.50;;;2.88;;
8131;SDS011;4107;49.212;9.198;2022-08-21T13:05:36;3.95;;;2.60;;
8131;SDS011;4107;49.212;9.198;2022-08-21T13:08:05;3.95;;;2.85;;
8131;SDS011;4107;49.212;9.198;2022-08-21T13:10:33;4.32;;;2.63;;
8131;SDS011;4107;49.212;9.198;2022-08-21T13:13:02;4.53;;;2.70;;
8131;SDS011;4107;49.212;9.198;2022-08-21T13:15:32;3.80;;;2.80;;
8131;SDS011;4107;49.212;9.198;2022-08-21T13:18:01;3.22;;;2.80;;
8131;SDS011;4107;49.212;9.198;2022-08-21T13:20:32;4.82;;;3.08;;
8131;SDS011;4107;49.212;9.198;2022-08-21T13:23:07;3.67;;;2.55;;
8131;SDS011;4107;49.212;9.198;2022-08-21T13:25:48;4.25;;;3.35;;
8131;SDS011;4107;49.212;9.198;2022-08-21T13:28:14;3.53;;;2.85;;
8131;SDS011;4107;49.212;9.198;2022-08-21T13:30:44;4.18;;;2.83;;
8131;SDS011;4107;49.212;9.198;2022-08-21T13:33:31;4.05;;;2.67;;
8131;SDS011;4107;49.212;9.198;2022-08-21T13:38:25;4.22;;;2.80;;
8131;SDS011;4107;49.212;9.198;2022-08-21T13:43:47;3.60;;;2.53;;
8131;SDS011;4107;49.212;9.198;2022-08-21T13:46:24;4.32;;;2.85;;
8131;SDS011;4107;49.212;9.198;2022-08-21T13:49:03;3.13;;;2.75;;
8131;SDS011;4107;49.212;9.198;2022-08-21T13:51:31;4.65;;;2.60;;
8131;SDS011;4107;49.212;9.198;2022-08-21T13:53:58;5.10;;;3.03;;
8131;SDS011;4107;49.212;9.198;2022-08-21T13:56:29;4.07;;;2.53;;
8131;SDS011;4107;49.212;9.198;2022-08-21T13:58:58;3.65;;;2.40;;
8131;SDS011;4107;49.212;9.198;2022-08-21T14:01:49;4.78;;;2.90;;
8131;SDS011;4107;49.212;9.198;2022-08-21T14:04:35;2.83;;;2.50;;
8131;SDS011;4107;49.212;9.198;2022-08-21T14:07:31;4.18;;;2.97;;
8131;SDS011;4107;49.212;9.198;2022-08-21T14:10:01;2.80;;;2.50;;
8131;SDS011;4107;49.212;9.198;2022-08-21T14:12:32;4.28;;;2.50;;
8131;SDS011;4107;49.212;9.198;2022-08-21T14:15:12;5.00;;;3.03;;
8131;SDS011;4107;49.212;9.198;2022-08-21T14:17:40;4.28;;;2.65;;
8131;SDS011;4107;49.212;9.198;2022-08-21T14:20:08;3.67;;;2.60;;
8131;SDS011;4107;49.212;9.198;2022-08-21T14:28:03;3.78;;;2.72;;
8131;SDS011;4107;49.212;9.198;2022-08-21T14:30:52;3.40;;;2.50;;
8131;SDS011;4107;49.212;9.198;2022-08-21T14:33:23;4.10;;;2.70;;
8131;SDS011;4107;49.212;9.198;2022-08-21T14:35:54;2.90;;;2.47;;
8131;SDS011;4107;49.212;9.198;2022-08-21T14:38:21;3.58;;;2.50;;
8131;SDS011;4107;49.212;9.198;2022-08-21T14:40:50;3.75;;;2.75;;
8131;SDS011;4107;49.212;9.198;2022-08-21T14:43:28;3.63;;;2.63;;
8131;SDS011;4107;49.212;9.198;2022-08-21T14:45:55;3.45;;;2.47;;
8131;SDS011;4107;49.212;9.198;2022-08-21T14:48:21;3.75;;;2.50;;
8131;SDS011;4107;49.212;9.198;2022-08-21T14:50:47;3.88;;;2.45;;
8131;SDS011;4107;49.212;9.198;2022-08-21T14:53:22;5.40;;;2.85;;
8131;SDS011;4107;49.212;9.198;2022-08-21T14:55:47;3.42;;;2.63;;
8131;SDS011;4107;49.212;9.198;2022-08-21T14:58:33;4.72;;;3.13;;
8131;SDS011;4107;49.212;9.198;2022-08-21T15:01:06;3.55;;;2.70;;
8131;SDS011;4107;49.212;9.198;2022-08-21T15:03:34;4.25;;;3.00;;
8131;SDS011;4107;49.212;9.198;2022-08-21T15:06:01;5.22;;;3.10;;
8131;SDS011;4107;49.212;9.198;2022-08-21T15:08:28;3.75;;;2.63;;
8131;SDS011;4107;49.212;9.198;2022-08-21T15:10:53;2.65;;;2.30;;
8131;SDS011;4107;49.212;9.198;2022-08-21T15:13:28;5.10;;;3.05;;
8131;SDS011;4107;49.212;9.198;2022-08-21T15:15:56;3.20;;;2.63;;
8131;SDS011;4107;49.212;9.198;2022-08-21T15:18:23;4.03;;;2.88;;
8131;SDS011;4107;49.212;9.198;2022-08-21T15:20:51;4.35;;;2.67;;
8131;SDS011;4107;49.212;9.198;2022-08-21T15:23:17;2.88;;;2.33;;
8131;SDS011;4107;49.212;9.198;2022-08-21T15:25:52;3.28;;;2.78;;
8131;SDS011;4107;49.212;9.198;2022-08-21T15:28:20;3.08;;;2.78;;
8131;SDS011;4107;49.212;9.198;2022-08-21T15:30:47;4.30;;;2.70;;
8131;SDS011;4107;49.212;9.198;2022-08-21T15:33:13;4.03;;;2.80;;
8131;SDS011;4107;49.212;9.198;2022-08-21T15:35:39;5.13;;;3.08;;
8131;SDS011;4107;49.212;9.198;2022-08-21T15:38:05;3.92;;;2.70;;
8131;SDS011;4107;49.212;9.198;2022-08-21T15:40:55;4.65;;;3.05;;
8131;SDS011;4107;49.212;9.198;2022-08-21T15:43:27;3.72;;;2.40;;
8131;SDS011;4107;49.212;9.198;2022-08-21T15:45:54;3.45;;;2.78;;
8131;SDS011;4107;49.212;9.198;2022-08-21T15:48:20;3.70;;;2.70;;
8131;SDS011;4107;49.212;9.198;2022-08-21T15:50:47;6.40;;;2.67;;
8131;SDS011;4107;49.212;9.198;2022-08-21T15:53:13;4.80;;;2.90;;
8131;SDS011;4107;49.212;9.198;2022-08-21T15:55:39;3.90;;;2.95;;
8131;SDS011;4107;49.212;9.198;2022-08-21T15:58:05;4.53;;;2.85;;
8131;SDS011;4107;49.212;9.198;2022-08-21T16:00:32;5.03;;;2.65;;
8131;SDS011;4107;49.212;9.198;2022-08-21T16:03:03;4.80;;;2.72;;
8131;SDS011;4107;49.212;9.198;2022-08-21T16:05:29;4.00;;;2.72;;
8131;SDS011;4107;49.212;9.198;2022-08-21T16:07:56;4.22;;;2.47;;
8131;SDS011;4107;49.212;9.198;2022-08-21T16:10:23;5.55;;;2.65;;
8131;SDS011;4107;49.212;9.198;2022-08-21T16:12:50;2.92;;;2.28;;
8131;SDS011;4107;49.212;9.198;2022-08-21T16:15:18;5.35;;;2.45;;
8131;SDS011;4107;49.212;9.198;2022-08-21T16:17:45;6.53;;;2.78;;
8131;SDS011;4107;49.212;9.198;2022-08-21T16:20:14;3.83;;;2.70;;
8131;SDS011;4107;49.212;9.198;2022-08-21T16:22:41;3.00;;;2.63;;
8131;SDS011;4107;49.212;9.198;2022-08-21T16:25:07;4.63;;;2.70;;
8131;SDS011;4107;49.212;9.198;2022-08-21T16:27:33;3.17;;;2.28;;
8131;SDS011;4107;49.212;9.198;2022-08-21T16:30:06;3.20;;;2.50;;
8131;SDS011;4107;49.212;9.198;2022-08-21T16:32:32;3.00;;;2.22;;
8131;SDS011;4107;49.212;9.198;2022-08-21T16:34:59;3.47;;;2.80;;
8131;SDS011;4107;49.212;9.198;2022-08-21T16:37:25;3.95;;;2.80;;
8131;SDS011;4107;49.212;9.198;2022-08-21T16:39:51;5.03;;;2.72;;
8131;SDS011;4107;49.212;9.198;2022-08-21T16:42:18;4.10;;;2.55;;
8131;SDS011;4107;49.212;9.198;2022-08-21T16:45:18;4.63;;;2.30;;
8131;SDS011;4107;49.212;9.198;2022-08-21T16:47:45;3.85;;;3.03;;
8131;SDS011;4107;49.212;9.198;2022-08-21T16:50:21;5.53;;;2.78;;
8131;SDS011;4107;49.212;9.198;2022-08-21T16:52:48;5.15;;;2.80;;